Forside
METAR-TAF:

METAR-TAF

Lufthavne :

Juneau, Alaska, USA

Breddekreds: 58-21-17N, længdekreds: 134-34-34W, højde: 6 m

Aktuelle vejr

Denne rapport blev lavet for 46 minutter siden, kl. 10:53 UTC
Vind stille
Temperatur 2°C
Fugtighed 80%
Tryk 1020 hPa
Sigt: 16.1 km
skyfri

METAR: PAJN 191053Z 00000KT 10SM CLR 02/M01 A3013 RMK AO2 SLP203 T00171006

Tid: 03:39 (11:39 UTC)

Vejrudsigter

Denne rapport blev lavet for 6 timer og 19 minutter siden, kl. 05:20 UTC
Foreløbig gælder fra 19 på 06 UTC til 20 på 06 UTC
Vind kt fra nord
Sigt: 10 km
skyfri
Fra 19 på 1900 UTC
Vind 7 kt fra vestsydvest
Sigt: 10 km
skyfri

TAF: PAJN 190520Z 1906/2006 00000KT P6SM SKC FM191900 24007KT P6SM SKC

Vejrobservationer og prognoser fra mere end 4000 lufthavne (METAR og TAF).

De gule og røde prikker repræsenterer de meteorologiske stationer.

Flyt musen over at se navnet på stationen.

Så klik over at se vejr observationer og prognoser.

At skifte det kort: Klik på de grønne knapper med et sort kors for at zoome ind; på den grønne knap med en bindestreg for at zoome ud; eller på de grønne pile for tilstødende kort.


METAR-TAF: